Hua Heng 167 — BIAK3 — position and weather

sailwx.info

Track history (hours):
 
Tides and Currents Weather Stations Pressure Air Temp Water Temp Dewpoint Dewpoint Depression Visibility Wind Speed Wind Dir Waves Ship Positions

Hua Heng 167

Last reported at 2016-Sep-06 20:26 UTC. Time now 2016-Sep-26 22:27 UTC.
Position N 30°47' E 122°52'.
Warning: this ship's position is 20 days out of date.

Length 189 m; draft 7.1 m.

Type: Cargo ship. MMSI: 413376470.

Date/timePositionNaut miles runAvg speedWind from/ knotsBaromVisibWave heightAir tempDewpointWater temp
2016-Sep-06 20:26N 30°47' E 122°52'10011.2
2016-Sep-06 11:29N 31°40' E 121°12'1413.3
2016-Sep-06 10:25N 31°47' E 120°58'3 0.2
2016-Sep-05 20:12N 31°47' E 120°54'0 0.0
2016-Sep-05 18:21N 31°47' E 120°54'0 0.1
2016-Sep-05 15:33N 31°47' E 120°54'0 0.0
2016-Sep-05 10:27N 31°47' E 120°54'7 0.3
2016-Sep-04 08:29N 31°47' E 121°03'0 0.0
2016-Sep-04 07:20N 31°47' E 121°03'0 0.0
2016-Sep-04 06:17N 31°47' E 121°03'0 0.0
2016-Sep-04 00:32N 31°47' E 121°03'0 0.0
2016-Sep-03 23:20N 31°47' E 121°03'0 0.1
2016-Sep-03 22:29N 31°47' E 121°03'3 2.9
2016-Sep-03 21:33N 31°45' E 121°06'5 5.3
2016-Sep-03 20:33N 31°41' E 121°10'7 6.9
2016-Sep-03 19:33N 31°37' E 121°16'8 8.2
2016-Sep-03 18:33N 31°31' E 121°23'7 7.2
2016-Sep-03 17:33N 31°26' E 121°29'8 7.9
2016-Sep-03 16:31N 31°22' E 121°37'3110.1
2016-Sep-03 13:30N 31°11' E 122°11'1010.8
2016-Sep-03 12:33N 31°06' E 122°21'1010.0
2016-Sep-03 11:33N 31°12' E 122°31'1412.2
2016-Sep-03 10:25N 31°25' E 122°30'3912.9
2016-Sep-03 07:26N 32°03' E 122°40'7211.7
2016-Sep-03 01:15N 33°16' E 122°40'2613.6
2016-Sep-02 23:20N 33°42' E 122°39'2312.8
2016-Sep-02 21:33N 34°04' E 122°41'2411.9
2016-Sep-02 19:33N 34°28' E 122°40'10112.0
2016-Sep-02 11:07N 36°09' E 122°42'712.1
2016-Sep-02 10:32N 36°16' E 122°42'1611.6
2016-Sep-02 09:07N 36°32' E 122°43'611.3
2016-Sep-02 08:33N 36°39' E 122°44'1111.3
2016-Sep-02 07:33N 36°50' E 122°44'1211.9
2016-Sep-02 06:33N 37°02' E 122°45'1312.9
2016-Sep-02 05:33N 37°15' E 122°46'1413.4
2016-Sep-02 04:32N 37°28' E 122°45'1413.3
2016-Sep-02 03:29N 37°39' E 122°33'1212.4
2016-Sep-02 02:30N 37°47' E 122°22'6112.3
2016-Sep-01 21:31N 38°22' E 121°17'1212.9
2016-Sep-01 20:33N 38°28' E 121°04'1212.5
2016-Sep-01 19:33N 38°35' E 120°50'1611.3
2016-Sep-01 18:11N 38°44' E 120°34'83 9.2
2016-Sep-01 09:05N 39°55' E 119°39'0 0.0
2016-Sep-01 08:29N 39°55' E 119°39'0 0.0
2016-Sep-01 07:29N 39°55' E 119°39'0 0.0
2016-Sep-01 06:29N 39°55' E 119°39'0 0.0
2016-Sep-01 05:29N 39°55' E 119°39'0 0.0
2016-Sep-01 04:29N 39°55' E 119°39'0 0.0
2016-Sep-01 03:29N 39°55' E 119°39'0 0.0
2016-Sep-01 02:29N 39°55' E 119°39'0 0.0
2016-Sep-01 01:29N 39°55' E 119°39'0 0.0
2016-Aug-31 22:33N 39°55' E 119°39'0 0.0
2016-Aug-31 21:29N 39°55' E 119°39'0 0.0
2016-Aug-31 20:29N 39°55' E 119°39'0 0.0
2016-Aug-31 19:29N 39°55' E 119°39'0 0.0
2016-Aug-31 18:29N 39°55' E 119°39'0 0.0
2016-Aug-31 17:29N 39°55' E 119°39'0 0.0
2016-Aug-31 16:29N 39°55' E 119°39'0 0.0
2016-Aug-31 15:29N 39°55' E 119°39'0 0.0
2016-Aug-31 14:29N 39°55' E 119°39'0 0.0
2016-Aug-31 13:28N 39°55' E 119°39'3 3.4
2016-Aug-31 12:33N 39°52' E 119°40'6 6.0
2016-Aug-31 11:33N 39°53' E 119°47'6 6.2
2016-Aug-31 10:33N 39°59' E 119°50'0 0.1
2016-Aug-31 09:31N 39°59' E 119°50'0 0.0
2016-Aug-31 08:25N 39°59' E 119°50'0 0.0
2016-Aug-31 07:31N 39°59' E 119°50'0 0.0
2016-Aug-31 06:25N 39°59' E 119°50'0 0.0
2016-Aug-31 03:31N 39°59' E 119°50'0 0.0
2016-Aug-31 02:31N 39°59' E 119°50'0 0.0
2016-Aug-31 01:31N 39°59' E 119°50'0 0.0
2016-Aug-31 00:31N 39°59' E 119°50'0 0.0
2016-Aug-30 23:31N 39°59' E 119°50'0 0.0
2016-Aug-30 22:31N 39°59' E 119°50'0 0.0
2016-Aug-30 21:31N 39°59' E 119°50'0 0.0
2016-Aug-30 19:13N 39°59' E 119°50'0 0.0
2016-Aug-30 18:31N 39°59' E 119°50'0 0.0
2016-Aug-30 17:31N 39°59' E 119°50'0 0.0
2016-Aug-30 16:31N 39°59' E 119°50'0 0.0
2016-Aug-30 15:31N 39°59' E 119°50'0 0.0
2016-Aug-30 14:19N 39°59' E 119°50'0 0.0
2016-Aug-30 13:31N 39°59' E 119°50'0 0.0
2016-Aug-30 12:13N 39°59' E 119°50'0 0.0
2016-Aug-30 11:31N 39°59' E 119°50'0 0.0
2016-Aug-30 10:31N 39°59' E 119°50'0 0.0
2016-Aug-30 09:31N 39°59' E 119°50'0 0.0
2016-Aug-30 08:31N 39°59' E 119°50'0 0.0
2016-Aug-30 07:31N 39°59' E 119°50'0 0.0
2016-Aug-30 06:31N 39°59' E 119°50'0 0.0
2016-Aug-30 05:31N 39°59' E 119°50'0 0.0
2016-Aug-30 04:25N 39°59' E 119°50'0 0.0
2016-Aug-30 03:31N 39°59' E 119°50'0 0.0
2016-Aug-30 02:31N 39°59' E 119°50'0 0.0
2016-Aug-30 01:31N 39°59' E 119°50'0 0.0
2016-Aug-30 00:31N 39°59' E 119°50'0 0.0
2016-Aug-29 23:31N 39°59' E 119°50'0 0.0
2016-Aug-29 22:31N 39°59' E 119°50'0 0.0
2016-Aug-29 21:31N 39°59' E 119°50'0 0.0
2016-Aug-29 20:31N 39°59' E 119°50'0 0.0
2016-Aug-29 19:31N 39°59' E 119°50'0 0.0
2016-Aug-29 18:31N 39°59' E 119°50'0 0.0
2016-Aug-29 17:31N 39°59' E 119°50'0 0.0
2016-Aug-29 16:31N 39°59' E 119°50'0 0.0
2016-Aug-29 15:31N 39°59' E 119°50'0 0.0
2016-Aug-29 14:31N 39°59' E 119°50'0 0.0
2016-Aug-29 13:31N 39°59' E 119°50'0 0.0
2016-Aug-29 12:31N 39°59' E 119°50'0 0.0
2016-Aug-29 11:31N 39°59' E 119°50'0 0.0
2016-Aug-29 10:25N 39°59' E 119°50'0 0.0
2016-Aug-29 09:31N 39°59' E 119°50'0 0.0
2016-Aug-29 08:31N 39°59' E 119°50'0 0.0
2016-Aug-29 07:25N 39°59' E 119°50'0 0.0
2016-Aug-29 06:31N 39°59' E 119°50'0 0.0
2016-Aug-29 05:31N 39°59' E 119°50'0 0.0
2016-Aug-29 04:31N 39°59' E 119°50'0 0.0
2016-Aug-29 03:19N 39°59' E 119°50'0 0.0
2016-Aug-29 02:31N 39°59' E 119°50'0 0.0
2016-Aug-29 01:25N 39°59' E 119°50'0 0.0
2016-Aug-29 00:31N 39°59' E 119°50'0 0.0
2016-Aug-28 23:31N 39°59' E 119°50'0 0.0
2016-Aug-28 22:31N 39°59' E 119°50'0 0.0
2016-Aug-28 21:31N 39°59' E 119°50'0 0.0
2016-Aug-28 20:31N 39°59' E 119°50'0 0.0
2016-Aug-28 19:31N 39°59' E 119°50'0 0.0
2016-Aug-28 18:31N 39°59' E 119°50'0 0.0
2016-Aug-28 17:31N 39°59' E 119°50'0 0.0
2016-Aug-28 16:31N 39°59' E 119°50'0 0.0
2016-Aug-28 15:31N 39°59' E 119°50'0 0.0
2016-Aug-28 14:25N 39°59' E 119°50'0 0.0
2016-Aug-28 13:31N 39°59' E 119°50'0 0.0
2016-Aug-28 12:31N 39°59' E 119°50'0 0.0
2016-Aug-28 11:25N 39°59' E 119°50'0 0.0
2016-Aug-28 10:31N 39°59' E 119°50'0 0.0
2016-Aug-28 09:25N 39°59' E 119°50'0 0.0
2016-Aug-28 08:31N 39°59' E 119°50'0 0.0
2016-Aug-28 07:31N 39°59' E 119°50'0 0.0
2016-Aug-28 06:31N 39°59' E 119°50'0 0.0
2016-Aug-28 05:31N 39°59' E 119°50'0 0.0
2016-Aug-28 04:31N 39°59' E 119°50'0 0.0
2016-Aug-28 03:31N 39°59' E 119°50'0 0.0
2016-Aug-28 02:31N 39°59' E 119°50'0 0.0
2016-Aug-28 01:31N 39°59' E 119°50'0 0.0
2016-Aug-28 00:31N 39°59' E 119°50'0 0.0
2016-Aug-27 23:31N 39°59' E 119°50'0 0.0
2016-Aug-27 22:30N 39°59' E 119°50'0 0.0
2016-Aug-27 21:31N 39°59' E 119°50'  
Track history (hours):
 
Tides and Currents Weather Stations Pressure Air Temp Water Temp Dewpoint Dewpoint Depression Visibility Wind Speed Wind Dir Waves Ship Positions

Hua Heng 167

Last reported at 2016-Sep-06 20:26 UTC. Time now 2016-Sep-26 22:27 UTC.
Position N 30°47' E 122°52'.
Warning: this ship's position is 20 days out of date.

Length 189 m; draft 7.1 m.

Type: Cargo ship. MMSI: 413376470.

Date/timePositionNaut miles runAvg speedWind from/ knotsBaromVisibWave heightAir tempDewpointWater temp
2016-Sep-06 20:26N 30°47' E 122°52'10011.2
2016-Sep-06 11:29N 31°40' E 121°12'1413.3
2016-Sep-06 10:25N 31°47' E 120°58'3 0.2
2016-Sep-05 20:12N 31°47' E 120°54'0 0.0
2016-Sep-05 18:21N 31°47' E 120°54'0 0.1
2016-Sep-05 15:33N 31°47' E 120°54'0 0.0
2016-Sep-05 10:27N 31°47' E 120°54'7 0.3
2016-Sep-04 08:29N 31°47' E 121°03'0 0.0
2016-Sep-04 07:20N 31°47' E 121°03'0 0.0
2016-Sep-04 06:17N 31°47' E 121°03'0 0.0
2016-Sep-04 00:32N 31°47' E 121°03'0 0.0
2016-Sep-03 23:20N 31°47' E 121°03'0 0.1
2016-Sep-03 22:29N 31°47' E 121°03'3 2.9
2016-Sep-03 21:33N 31°45' E 121°06'5 5.3
2016-Sep-03 20:33N 31°41' E 121°10'7 6.9
2016-Sep-03 19:33N 31°37' E 121°16'8 8.2
2016-Sep-03 18:33N 31°31' E 121°23'7 7.2
2016-Sep-03 17:33N 31°26' E 121°29'8 7.9
2016-Sep-03 16:31N 31°22' E 121°37'3110.1
2016-Sep-03 13:30N 31°11' E 122°11'1010.8
2016-Sep-03 12:33N 31°06' E 122°21'1010.0
2016-Sep-03 11:33N 31°12' E 122°31'1412.2
2016-Sep-03 10:25N 31°25' E 122°30'3912.9
2016-Sep-03 07:26N 32°03' E 122°40'7211.7
2016-Sep-03 01:15N 33°16' E 122°40'2613.6
2016-Sep-02 23:20N 33°42' E 122°39'2312.8
2016-Sep-02 21:33N 34°04' E 122°41'2411.9
2016-Sep-02 19:33N 34°28' E 122°40'10112.0
2016-Sep-02 11:07N 36°09' E 122°42'712.1
2016-Sep-02 10:32N 36°16' E 122°42'1611.6
2016-Sep-02 09:07N 36°32' E 122°43'611.3
2016-Sep-02 08:33N 36°39' E 122°44'1111.3
2016-Sep-02 07:33N 36°50' E 122°44'1211.9
2016-Sep-02 06:33N 37°02' E 122°45'1312.9
2016-Sep-02 05:33N 37°15' E 122°46'1413.4
2016-Sep-02 04:32N 37°28' E 122°45'1413.3
2016-Sep-02 03:29N 37°39' E 122°33'1212.4
2016-Sep-02 02:30N 37°47' E 122°22'6112.3
2016-Sep-01 21:31N 38°22' E 121°17'1212.9
2016-Sep-01 20:33N 38°28' E 121°04'1212.5
2016-Sep-01 19:33N 38°35' E 120°50'1611.3
2016-Sep-01 18:11N 38°44' E 120°34'83 9.2
2016-Sep-01 09:05N 39°55' E 119°39'0 0.0
2016-Sep-01 08:29N 39°55' E 119°39'0 0.0
2016-Sep-01 07:29N 39°55' E 119°39'0 0.0
2016-Sep-01 06:29N 39°55' E 119°39'0 0.0
2016-Sep-01 05:29N 39°55' E 119°39'0 0.0
2016-Sep-01 04:29N 39°55' E 119°39'0 0.0
2016-Sep-01 03:29N 39°55' E 119°39'0 0.0
2016-Sep-01 02:29N 39°55' E 119°39'0 0.0
2016-Sep-01 01:29N 39°55' E 119°39'0 0.0
2016-Aug-31 22:33N 39°55' E 119°39'0 0.0
2016-Aug-31 21:29N 39°55' E 119°39'0 0.0
2016-Aug-31 20:29N 39°55' E 119°39'0 0.0
2016-Aug-31 19:29N 39°55' E 119°39'0 0.0
2016-Aug-31 18:29N 39°55' E 119°39'0 0.0
2016-Aug-31 17:29N 39°55' E 119°39'0 0.0
2016-Aug-31 16:29N 39°55' E 119°39'0 0.0
2016-Aug-31 15:29N 39°55' E 119°39'0 0.0
2016-Aug-31 14:29N 39°55' E 119°39'0 0.0
2016-Aug-31 13:28N 39°55' E 119°39'3 3.4
2016-Aug-31 12:33N 39°52' E 119°40'6 6.0
2016-Aug-31 11:33N 39°53' E 119°47'6 6.2
2016-Aug-31 10:33N 39°59' E 119°50'0 0.1
2016-Aug-31 09:31N 39°59' E 119°50'0 0.0
2016-Aug-31 08:25N 39°59' E 119°50'0 0.0
2016-Aug-31 07:31N 39°59' E 119°50'0 0.0
2016-Aug-31 06:25N 39°59' E 119°50'0 0.0
2016-Aug-31 03:31N 39°59' E 119°50'0 0.0
2016-Aug-31 02:31N 39°59' E 119°50'0 0.0
2016-Aug-31 01:31N 39°59' E 119°50'0 0.0
2016-Aug-31 00:31N 39°59' E 119°50'0 0.0
2016-Aug-30 23:31N 39°59' E 119°50'0 0.0
2016-Aug-30 22:31N 39°59' E 119°50'0 0.0
2016-Aug-30 21:31N 39°59' E 119°50'0 0.0
2016-Aug-30 19:13N 39°59' E 119°50'0 0.0
2016-Aug-30 18:31N 39°59' E 119°50'0 0.0
2016-Aug-30 17:31N 39°59' E 119°50'0 0.0
2016-Aug-30 16:31N 39°59' E 119°50'0 0.0
2016-Aug-30 15:31N 39°59' E 119°50'0 0.0
2016-Aug-30 14:19N 39°59' E 119°50'0 0.0
2016-Aug-30 13:31N 39°59' E 119°50'0 0.0
2016-Aug-30 12:13N 39°59' E 119°50'0 0.0
2016-Aug-30 11:31N 39°59' E 119°50'0 0.0
2016-Aug-30 10:31N 39°59' E 119°50'0 0.0
2016-Aug-30 09:31N 39°59' E 119°50'0 0.0
2016-Aug-30 08:31N 39°59' E 119°50'0 0.0
2016-Aug-30 07:31N 39°59' E 119°50'0 0.0
2016-Aug-30 06:31N 39°59' E 119°50'0 0.0
2016-Aug-30 05:31N 39°59' E 119°50'0 0.0
2016-Aug-30 04:25N 39°59' E 119°50'0 0.0
2016-Aug-30 03:31N 39°59' E 119°50'0 0.0
2016-Aug-30 02:31N 39°59' E 119°50'0 0.0
2016-Aug-30 01:31N 39°59' E 119°50'0 0.0
2016-Aug-30 00:31N 39°59' E 119°50'0 0.0
2016-Aug-29 23:31N 39°59' E 119°50'0 0.0
2016-Aug-29 22:31N 39°59' E 119°50'0 0.0
2016-Aug-29 21:31N 39°59' E 119°50'0 0.0
2016-Aug-29 20:31N 39°59' E 119°50'0 0.0
2016-Aug-29 19:31N 39°59' E 119°50'0 0.0
2016-Aug-29 18:31N 39°59' E 119°50'0 0.0
2016-Aug-29 17:31N 39°59' E 119°50'0 0.0
2016-Aug-29 16:31N 39°59' E 119°50'0 0.0
2016-Aug-29 15:31N 39°59' E 119°50'0 0.0
2016-Aug-29 14:31N 39°59' E 119°50'0 0.0
2016-Aug-29 13:31N 39°59' E 119°50'0 0.0
2016-Aug-29 12:31N 39°59' E 119°50'0 0.0
2016-Aug-29 11:31N 39°59' E 119°50'0 0.0
2016-Aug-29 10:25N 39°59' E 119°50'0 0.0
2016-Aug-29 09:31N 39°59' E 119°50'0 0.0
2016-Aug-29 08:31N 39°59' E 119°50'0 0.0
2016-Aug-29 07:25N 39°59' E 119°50'0 0.0
2016-Aug-29 06:31N 39°59' E 119°50'0 0.0
2016-Aug-29 05:31N 39°59' E 119°50'0 0.0
2016-Aug-29 04:31N 39°59' E 119°50'0 0.0
2016-Aug-29 03:19N 39°59' E 119°50'0 0.0
2016-Aug-29 02:31N 39°59' E 119°50'0 0.0
2016-Aug-29 01:25N 39°59' E 119°50'0 0.0
2016-Aug-29 00:31N 39°59' E 119°50'0 0.0
2016-Aug-28 23:31N 39°59' E 119°50'0 0.0
2016-Aug-28 22:31N 39°59' E 119°50'0 0.0
2016-Aug-28 21:31N 39°59' E 119°50'0 0.0
2016-Aug-28 20:31N 39°59' E 119°50'0 0.0
2016-Aug-28 19:31N 39°59' E 119°50'0 0.0
2016-Aug-28 18:31N 39°59' E 119°50'0 0.0
2016-Aug-28 17:31N 39°59' E 119°50'0 0.0
2016-Aug-28 16:31N 39°59' E 119°50'0 0.0
2016-Aug-28 15:31N 39°59' E 119°50'0 0.0
2016-Aug-28 14:25N 39°59' E 119°50'0 0.0
2016-Aug-28 13:31N 39°59' E 119°50'0 0.0
2016-Aug-28 12:31N 39°59' E 119°50'0 0.0
2016-Aug-28 11:25N 39°59' E 119°50'0 0.0
2016-Aug-28 10:31N 39°59' E 119°50'0 0.0
2016-Aug-28 09:25N 39°59' E 119°50'0 0.0
2016-Aug-28 08:31N 39°59' E 119°50'0 0.0
2016-Aug-28 07:31N 39°59' E 119°50'0 0.0
2016-Aug-28 06:31N 39°59' E 119°50'0 0.0
2016-Aug-28 05:31N 39°59' E 119°50'0 0.0
2016-Aug-28 04:31N 39°59' E 119°50'0 0.0
2016-Aug-28 03:31N 39°59' E 119°50'0 0.0
2016-Aug-28 02:31N 39°59' E 119°50'0 0.0
2016-Aug-28 01:31N 39°59' E 119°50'0 0.0
2016-Aug-28 00:31N 39°59' E 119°50'0 0.0
2016-Aug-27 23:31N 39°59' E 119°50'0 0.0
2016-Aug-27 22:30N 39°59' E 119°50'0 0.0
2016-Aug-27 21:31N 39°59' E 119°50'  

Dump ship's entire track history